sensor_id;sensor_type;location;lat;lon;timestamp;P1;durP1;ratioP1;P2;durP2;ratioP2
14994;SDS011;7593;49.006;8.372;2023-02-01T00:00:09;8.17;;;5.77;;
14994;SDS011;7593;49.006;8.372;2023-02-01T00:02:37;8.47;;;5.20;;
14994;SDS011;7593;49.006;8.372;2023-02-01T00:05:06;7.17;;;5.70;;
14994;SDS011;7593;49.006;8.372;2023-02-01T00:07:34;8.07;;;5.43;;
14994;SDS011;7593;49.006;8.372;2023-02-01T00:10:02;6.87;;;5.30;;
14994;SDS011;7593;49.006;8.372;2023-02-01T00:12:30;7.67;;;5.40;;
14994;SDS011;7593;49.006;8.372;2023-02-01T00:14:57;6.70;;;5.43;;
14994;SDS011;7593;49.006;8.372;2023-02-01T00:17:25;7.67;;;5.37;;
14994;SDS011;7593;49.006;8.372;2023-02-01T00:19:53;6.77;;;4.90;;
14994;SDS011;7593;49.006;8.372;2023-02-01T00:22:21;9.47;;;5.37;;
14994;SDS011;7593;49.006;8.372;2023-02-01T00:24:49;5.97;;;4.50;;
14994;SDS011;7593;49.006;8.372;2023-02-01T00:27:16;6.50;;;5.30;;
14994;SDS011;7593;49.006;8.372;2023-02-01T00:29:45;9.00;;;5.00;;
14994;SDS011;7593;49.006;8.372;2023-02-01T00:32:12;8.97;;;5.07;;
14994;SDS011;7593;49.006;8.372;2023-02-01T00:34:39;7.47;;;5.10;;
14994;SDS011;7593;49.006;8.372;2023-02-01T00:37:06;6.13;;;4.87;;
14994;SDS011;7593;49.006;8.372;2023-02-01T00:39:33;5.90;;;4.60;;
14994;SDS011;7593;49.006;8.372;2023-02-01T00:42:01;7.33;;;4.80;;
14994;SDS011;7593;49.006;8.372;2023-02-01T00:44:28;6.40;;;5.00;;
14994;SDS011;7593;49.006;8.372;2023-02-01T00:46:58;6.67;;;4.60;;
14994;SDS011;7593;49.006;8.372;2023-02-01T00:49:25;4.73;;;4.23;;
14994;SDS011;7593;49.006;8.372;2023-02-01T00:51:52;5.87;;;4.53;;
14994;SDS011;7593;49.006;8.372;2023-02-01T00:54:18;6.67;;;4.63;;
14994;SDS011;7593;49.006;8.372;2023-02-01T00:56:47;4.40;;;3.93;;
14994;SDS011;7593;49.006;8.372;2023-02-01T00:59:22;5.17;;;4.03;;
14994;SDS011;7593;49.006;8.372;2023-02-01T01:01:52;4.97;;;3.93;;
14994;SDS011;7593;49.006;8.372;2023-02-01T01:04:18;5.80;;;4.00;;
14994;SDS011;7593;49.006;8.372;2023-02-01T01:06:46;6.43;;;4.27;;
14994;SDS011;7593;49.006;8.372;2023-02-01T01:09:15;5.67;;;4.30;;
14994;SDS011;7593;49.006;8.372;2023-02-01T01:11:42;4.90;;;4.07;;
14994;SDS011;7593;49.006;8.372;2023-02-01T01:14:10;5.30;;;4.20;;
14994;SDS011;7593;49.006;8.372;2023-02-01T01:16:39;5.00;;;4.33;;
14994;SDS011;7593;49.006;8.372;2023-02-01T01:19:06;5.20;;;4.10;;
14994;SDS011;7593;49.006;8.372;2023-02-01T01:21:35;6.00;;;4.40;;
14994;SDS011;7593;49.006;8.372;2023-02-01T01:24:04;5.10;;;4.20;;
14994;SDS011;7593;49.006;8.372;2023-02-01T01:26:31;4.40;;;4.00;;
14994;SDS011;7593;49.006;8.372;2023-02-01T01:28:59;4.63;;;3.63;;
14994;SDS011;7593;49.006;8.372;2023-02-01T01:31:27;5.83;;;3.97;;
14994;SDS011;7593;49.006;8.372;2023-02-01T01:33:55;5.37;;;4.03;;
14994;SDS011;7593;49.006;8.372;2023-02-01T01:36:24;4.63;;;3.77;;
14994;SDS011;7593;49.006;8.372;2023-02-01T01:38:54;6.63;;;4.97;;
14994;SDS011;7593;49.006;8.372;2023-02-01T01:41:25;5.60;;;4.43;;
14994;SDS011;7593;49.006;8.372;2023-02-01T01:43:58;6.73;;;5.37;;
14994;SDS011;7593;49.006;8.372;2023-02-01T01:46:27;6.30;;;4.80;;
14994;SDS011;7593;49.006;8.372;2023-02-01T01:49:03;6.80;;;4.23;;
14994;SDS011;7593;49.006;8.372;2023-02-01T01:51:36;6.60;;;4.80;;
14994;SDS011;7593;49.006;8.372;2023-02-01T01:54:07;11.17;;;7.17;;
14994;SDS011;7593;49.006;8.372;2023-02-01T01:56:38;4.80;;;3.90;;
14994;SDS011;7593;49.006;8.372;2023-02-01T01:59:06;6.43;;;3.97;;
14994;SDS011;7593;49.006;8.372;2023-02-01T02:01:33;9.07;;;6.53;;
14994;SDS011;7593;49.006;8.372;2023-02-01T02:04:02;4.80;;;3.77;;
14994;SDS011;7593;49.006;8.372;2023-02-01T02:06:41;4.40;;;3.63;;
14994;SDS011;7593;49.006;8.372;2023-02-01T02:09:14;6.70;;;4.80;;
14994;SDS011;7593;49.006;8.372;2023-02-01T02:11:41;11.43;;;7.57;;
14994;SDS011;7593;49.006;8.372;2023-02-01T02:14:11;8.23;;;5.53;;
14994;SDS011;7593;49.006;8.372;2023-02-01T02:16:45;5.27;;;3.83;;
14994;SDS011;7593;49.006;8.372;2023-02-01T02:22:39;5.23;;;4.07;;
14994;SDS011;7593;49.006;8.372;2023-02-01T02:25:45;5.67;;;4.23;;
14994;SDS011;7593;49.006;8.372;2023-02-01T02:28:37;5.10;;;3.67;;
14994;SDS011;7593;49.006;8.372;2023-02-01T02:31:35;4.70;;;4.20;;
14994;SDS011;7593;49.006;8.372;2023-02-01T02:34:19;6.30;;;4.23;;
14994;SDS011;7593;49.006;8.372;2023-02-01T02:36:55;4.43;;;3.80;;
14994;SDS011;7593;49.006;8.372;2023-02-01T02:39:32;4.10;;;3.70;;
14994;SDS011;7593;49.006;8.372;2023-02-01T02:42:10;4.17;;;3.63;;
14994;SDS011;7593;49.006;8.372;2023-02-01T02:44:58;6.10;;;4.40;;
14994;SDS011;7593;49.006;8.372;2023-02-01T02:48:03;4.40;;;3.90;;
14994;SDS011;7593;49.006;8.372;2023-02-01T02:50:40;4.23;;;3.67;;
14994;SDS011;7593;49.006;8.372;2023-02-01T02:53:32;4.13;;;3.73;;
14994;SDS011;7593;49.006;8.372;2023-02-01T02:56:32;4.00;;;3.27;;
14994;SDS011;7593;49.006;8.372;2023-02-01T02:59:19;4.10;;;3.27;;
14994;SDS011;7593;49.006;8.372;2023-02-01T03:02:06;4.50;;;3.10;;
14994;SDS011;7593;49.006;8.372;2023-02-01T03:04:52;4.07;;;3.57;;
14994;SDS011;7593;49.006;8.372;2023-02-01T03:10:16;3.43;;;3.00;;
14994;SDS011;7593;49.006;8.372;2023-02-01T03:12:49;3.70;;;3.10;;
14994;SDS011;7593;49.006;8.372;2023-02-01T03:15:23;5.43;;;3.70;;
14994;SDS011;7593;49.006;8.372;2023-02-01T03:17:55;4.37;;;3.50;;
14994;SDS011;7593;49.006;8.372;2023-02-01T03:20:24;4.13;;;3.73;;
14994;SDS011;7593;49.006;8.372;2023-02-01T03:22:53;4.40;;;3.60;;
14994;SDS011;7593;49.006;8.372;2023-02-01T03:25:22;4.07;;;3.47;;
14994;SDS011;7593;49.006;8.372;2023-02-01T03:27:55;3.90;;;3.40;;
14994;SDS011;7593;49.006;8.372;2023-02-01T03:30:26;5.23;;;3.67;;
14994;SDS011;7593;49.006;8.372;2023-02-01T03:32:55;4.23;;;3.80;;
14994;SDS011;7593;49.006;8.372;2023-02-01T03:35:26;4.00;;;3.50;;
14994;SDS011;7593;49.006;8.372;2023-02-01T03:37:59;4.40;;;3.57;;
14994;SDS011;7593;49.006;8.372;2023-02-01T03:40:30;4.20;;;3.60;;
14994;SDS011;7593;49.006;8.372;2023-02-01T03:43:03;4.90;;;3.70;;
14994;SDS011;7593;49.006;8.372;2023-02-01T03:45:34;4.57;;;3.40;;
14994;SDS011;7593;49.006;8.372;2023-02-01T03:48:05;4.00;;;3.30;;
14994;SDS011;7593;49.006;8.372;2023-02-01T03:50:33;3.57;;;3.27;;
14994;SDS011;7593;49.006;8.372;2023-02-01T03:53:07;4.07;;;3.10;;
14994;SDS011;7593;49.006;8.372;2023-02-01T03:55:36;9.10;;;2.97;;
14994;SDS011;7593;49.006;8.372;2023-02-01T03:58:06;3.47;;;3.00;;
14994;SDS011;7593;49.006;8.372;2023-02-01T04:00:37;3.40;;;2.87;;
14994;SDS011;7593;49.006;8.372;2023-02-01T04:03:05;3.03;;;2.73;;
14994;SDS011;7593;49.006;8.372;2023-02-01T04:05:33;3.63;;;3.07;;
14994;SDS011;7593;49.006;8.372;2023-02-01T04:08:00;4.00;;;3.10;;
14994;SDS011;7593;49.006;8.372;2023-02-01T04:10:28;4.23;;;2.97;;
14994;SDS011;7593;49.006;8.372;2023-02-01T04:12:55;4.03;;;3.10;;
14994;SDS011;7593;49.006;8.372;2023-02-01T04:15:22;5.17;;;3.20;;
14994;SDS011;7593;49.006;8.372;2023-02-01T04:17:49;3.43;;;3.10;;
14994;SDS011;7593;49.006;8.372;2023-02-01T04:20:16;4.97;;;3.63;;
14994;SDS011;7593;49.006;8.372;2023-02-01T04:22:43;3.97;;;3.30;;
14994;SDS011;7593;49.006;8.372;2023-02-01T04:25:09;3.90;;;3.50;;
14994;SDS011;7593;49.006;8.372;2023-02-01T04:27:38;4.63;;;3.70;;
14994;SDS011;7593;49.006;8.372;2023-02-01T04:30:05;4.00;;;3.60;;
14994;SDS011;7593;49.006;8.372;2023-02-01T04:32:34;4.47;;;3.60;;
14994;SDS011;7593;49.006;8.372;2023-02-01T04:35:01;4.37;;;3.43;;
14994;SDS011;7593;49.006;8.372;2023-02-01T04:37:28;5.93;;;4.03;;
14994;SDS011;7593;49.006;8.372;2023-02-01T04:39:55;3.93;;;3.50;;
14994;SDS011;7593;49.006;8.372;2023-02-01T04:42:21;6.13;;;4.27;;
14994;SDS011;7593;49.006;8.372;2023-02-01T04:44:49;5.43;;;4.17;;
14994;SDS011;7593;49.006;8.372;2023-02-01T04:47:16;4.43;;;3.70;;
14994;SDS011;7593;49.006;8.372;2023-02-01T04:49:43;4.90;;;4.13;;
14994;SDS011;7593;49.006;8.372;2023-02-01T04:52:10;4.90;;;3.90;;
14994;SDS011;7593;49.006;8.372;2023-02-01T04:54:36;4.17;;;3.50;;
14994;SDS011;7593;49.006;8.372;2023-02-01T04:57:03;4.70;;;4.20;;
14994;SDS011;7593;49.006;8.372;2023-02-01T04:59:30;5.13;;;4.30;;
14994;SDS011;7593;49.006;8.372;2023-02-01T05:01:58;4.80;;;4.20;;
14994;SDS011;7593;49.006;8.372;2023-02-01T05:04:25;6.57;;;4.13;;
14994;SDS011;7593;49.006;8.372;2023-02-01T05:06:52;4.43;;;4.03;;
14994;SDS011;7593;49.006;8.372;2023-02-01T05:09:19;6.17;;;4.07;;
14994;SDS011;7593;49.006;8.372;2023-02-01T05:11:46;4.93;;;3.97;;
14994;SDS011;7593;49.006;8.372;2023-02-01T05:14:31;4.03;;;3.63;;
14994;SDS011;7593;49.006;8.372;2023-02-01T05:16:59;4.30;;;3.80;;
14994;SDS011;7593;49.006;8.372;2023-02-01T05:19:26;5.97;;;3.77;;
14994;SDS011;7593;49.006;8.372;2023-02-01T05:21:53;4.30;;;3.80;;
14994;SDS011;7593;49.006;8.372;2023-02-01T05:24:20;4.17;;;3.70;;
14994;SDS011;7593;49.006;8.372;2023-02-01T05:26:47;4.57;;;3.93;;
14994;SDS011;7593;49.006;8.372;2023-02-01T05:29:15;4.93;;;3.90;;
14994;SDS011;7593;49.006;8.372;2023-02-01T05:31:43;4.50;;;3.60;;
14994;SDS011;7593;49.006;8.372;2023-02-01T05:34:12;4.00;;;3.57;;
14994;SDS011;7593;49.006;8.372;2023-02-01T05:36:39;5.23;;;3.93;;
14994;SDS011;7593;49.006;8.372;2023-02-01T05:39:06;4.63;;;4.23;;
14994;SDS011;7593;49.006;8.372;2023-02-01T05:41:33;4.57;;;4.03;;
14994;SDS011;7593;49.006;8.372;2023-02-01T05:44:00;4.80;;;3.87;;
14994;SDS011;7593;49.006;8.372;2023-02-01T05:46:26;4.47;;;3.87;;
14994;SDS011;7593;49.006;8.372;2023-02-01T05:48:53;4.87;;;4.00;;
14994;SDS011;7593;49.006;8.372;2023-02-01T05:51:21;5.60;;;3.83;;
14994;SDS011;7593;49.006;8.372;2023-02-01T05:53:48;4.57;;;3.83;;
14994;SDS011;7593;49.006;8.372;2023-02-01T05:56:15;5.73;;;3.80;;
14994;SDS011;7593;49.006;8.372;2023-02-01T05:58:41;6.00;;;3.90;;
14994;SDS011;7593;49.006;8.372;2023-02-01T06:01:08;4.33;;;3.70;;
14994;SDS011;7593;49.006;8.372;2023-02-01T06:03:35;5.20;;;3.50;;
14994;SDS011;7593;49.006;8.372;2023-02-01T06:06:02;4.57;;;3.50;;
14994;SDS011;7593;49.006;8.372;2023-02-01T06:08:31;3.43;;;3.13;;
14994;SDS011;7593;49.006;8.372;2023-02-01T06:10:58;4.20;;;3.60;;
14994;SDS011;7593;49.006;8.372;2023-02-01T06:13:26;5.07;;;3.70;;
14994;SDS011;7593;49.006;8.372;2023-02-01T06:15:53;3.70;;;3.40;;
14994;SDS011;7593;49.006;8.372;2023-02-01T06:18:20;4.30;;;3.50;;
14994;SDS011;7593;49.006;8.372;2023-02-01T06:20:51;3.70;;;3.30;;
14994;SDS011;7593;49.006;8.372;2023-02-01T06:23:19;5.30;;;3.53;;
14994;SDS011;7593;49.006;8.372;2023-02-01T06:25:50;4.93;;;3.70;;
14994;SDS011;7593;49.006;8.372;2023-02-01T06:28:17;4.90;;;4.13;;
14994;SDS011;7593;49.006;8.372;2023-02-01T06:30:44;6.67;;;3.73;;
14994;SDS011;7593;49.006;8.372;2023-02-01T06:33:12;5.87;;;3.97;;
14994;SDS011;7593;49.006;8.372;2023-02-01T06:35:40;5.30;;;3.83;;
14994;SDS011;7593;49.006;8.372;2023-02-01T06:38:09;4.83;;;3.50;;
14994;SDS011;7593;49.006;8.372;2023-02-01T06:40:36;4.60;;;3.40;;
14994;SDS011;7593;49.006;8.372;2023-02-01T06:43:04;5.00;;;3.80;;
14994;SDS011;7593;49.006;8.372;2023-02-01T06:45:31;4.73;;;3.67;;
14994;SDS011;7593;49.006;8.372;2023-02-01T06:47:58;4.40;;;3.60;;
14994;SDS011;7593;49.006;8.372;2023-02-01T06:50:26;4.80;;;4.10;;
14994;SDS011;7593;49.006;8.372;2023-02-01T06:52:53;5.17;;;3.93;;
14994;SDS011;7593;49.006;8.372;2023-02-01T06:55:19;4.13;;;3.30;;
14994;SDS011;7593;49.006;8.372;2023-02-01T06:57:46;3.93;;;3.53;;
14994;SDS011;7593;49.006;8.372;2023-02-01T07:00:15;4.20;;;3.47;;
14994;SDS011;7593;49.006;8.372;2023-02-01T07:02:45;3.93;;;3.27;;
14994;SDS011;7593;49.006;8.372;2023-02-01T07:05:12;4.57;;;3.57;;
14994;SDS011;7593;49.006;8.372;2023-02-01T07:07:39;5.73;;;4.10;;
14994;SDS011;7593;49.006;8.372;2023-02-01T07:10:06;4.47;;;3.77;;
14994;SDS011;7593;49.006;8.372;2023-02-01T07:12:34;6.40;;;4.13;;
14994;SDS011;7593;49.006;8.372;2023-02-01T07:15:03;5.87;;;4.07;;
14994;SDS011;7593;49.006;8.372;2023-02-01T07:17:32;5.77;;;4.23;;
14994;SDS011;7593;49.006;8.372;2023-02-01T07:19:58;6.63;;;4.17;;
14994;SDS011;7593;49.006;8.372;2023-02-01T07:22:26;8.73;;;4.33;;
14994;SDS011;7593;49.006;8.372;2023-02-01T07:24:54;6.10;;;4.30;;
14994;SDS011;7593;49.006;8.372;2023-02-01T07:27:20;6.87;;;5.27;;
14994;SDS011;7593;49.006;8.372;2023-02-01T07:29:52;8.03;;;4.70;;
14994;SDS011;7593;49.006;8.372;2023-02-01T07:32:20;8.13;;;4.87;;
14994;SDS011;7593;49.006;8.372;2023-02-01T07:34:49;7.37;;;5.37;;
14994;SDS011;7593;49.006;8.372;2023-02-01T07:37:15;8.77;;;4.93;;
14994;SDS011;7593;49.006;8.372;2023-02-01T07:39:43;7.40;;;4.90;;
14994;SDS011;7593;49.006;8.372;2023-02-01T07:42:10;8.33;;;5.10;;
14994;SDS011;7593;49.006;8.372;2023-02-01T07:44:37;7.40;;;5.20;;
14994;SDS011;7593;49.006;8.372;2023-02-01T07:47:12;11.07;;;6.27;;
14994;SDS011;7593;49.006;8.372;2023-02-01T07:49:39;8.87;;;6.03;;
14994;SDS011;7593;49.006;8.372;2023-02-01T07:52:07;12.07;;;8.13;;
14994;SDS011;7593;49.006;8.372;2023-02-01T07:54:36;8.13;;;5.03;;
14994;SDS011;7593;49.006;8.372;2023-02-01T07:57:03;6.83;;;5.50;;
14994;SDS011;7593;49.006;8.372;2023-02-01T07:59:29;7.93;;;4.60;;
14994;SDS011;7593;49.006;8.372;2023-02-01T08:01:56;8.50;;;4.43;;
14994;SDS011;7593;49.006;8.372;2023-02-01T08:04:22;6.07;;;3.93;;
14994;SDS011;7593;49.006;8.372;2023-02-01T08:06:49;8.47;;;5.60;;
14994;SDS011;7593;49.006;8.372;2023-02-01T08:09:17;6.13;;;4.20;;
14994;SDS011;7593;49.006;8.372;2023-02-01T08:11:44;6.57;;;4.90;;
14994;SDS011;7593;49.006;8.372;2023-02-01T08:14:10;7.70;;;5.03;;
14994;SDS011;7593;49.006;8.372;2023-02-01T08:16:37;8.47;;;6.23;;
14994;SDS011;7593;49.006;8.372;2023-02-01T08:19:04;5.53;;;3.57;;
14994;SDS011;7593;49.006;8.372;2023-02-01T08:21:31;6.37;;;4.40;;
14994;SDS011;7593;49.006;8.372;2023-02-01T08:24:03;4.83;;;4.20;;
14994;SDS011;7593;49.006;8.372;2023-02-01T08:26:34;7.07;;;5.70;;
14994;SDS011;7593;49.006;8.372;2023-02-01T08:29:02;6.27;;;4.67;;
14994;SDS011;7593;49.006;8.372;2023-02-01T08:31:30;7.43;;;4.60;;
14994;SDS011;7593;49.006;8.372;2023-02-01T08:33:57;5.63;;;4.00;;
14994;SDS011;7593;49.006;8.372;2023-02-01T08:36:26;4.67;;;3.53;;
14994;SDS011;7593;49.006;8.372;2023-02-01T08:38:54;6.43;;;3.37;;
14994;SDS011;7593;49.006;8.372;2023-02-01T08:41:22;6.43;;;3.77;;
14994;SDS011;7593;49.006;8.372;2023-02-01T08:43:51;5.73;;;3.40;;
14994;SDS011;7593;49.006;8.372;2023-02-01T08:46:20;7.97;;;3.97;;
14994;SDS011;7593;49.006;8.372;2023-02-01T08:48:48;6.03;;;3.57;;
14994;SDS011;7593;49.006;8.372;2023-02-01T08:51:17;5.17;;;3.60;;
14994;SDS011;7593;49.006;8.372;2023-02-01T08:53:45;5.57;;;4.03;;
14994;SDS011;7593;49.006;8.372;2023-02-01T08:56:14;4.47;;;3.37;;
14994;SDS011;7593;49.006;8.372;2023-02-01T08:58:42;7.73;;;3.70;;
14994;SDS011;7593;49.006;8.372;2023-02-01T09:01:11;7.07;;;4.10;;
14994;SDS011;7593;49.006;8.372;2023-02-01T09:03:39;5.73;;;3.80;;
14994;SDS011;7593;49.006;8.372;2023-02-01T09:06:07;6.50;;;3.57;;
14994;SDS011;7593;49.006;8.372;2023-02-01T09:08:36;7.23;;;3.40;;
14994;SDS011;7593;49.006;8.372;2023-02-01T09:11:05;8.17;;;3.50;;
14994;SDS011;7593;49.006;8.372;2023-02-01T09:13:33;6.40;;;3.50;;
14994;SDS011;7593;49.006;8.372;2023-02-01T09:16:00;6.43;;;3.63;;
14994;SDS011;7593;49.006;8.372;2023-02-01T09:18:28;8.47;;;3.60;;
14994;SDS011;7593;49.006;8.372;2023-02-01T09:20:55;6.00;;;3.30;;
14994;SDS011;7593;49.006;8.372;2023-02-01T09:23:22;6.27;;;3.33;;
14994;SDS011;7593;49.006;8.372;2023-02-01T09:25:48;6.57;;;3.30;;
14994;SDS011;7593;49.006;8.372;2023-02-01T09:28:16;6.93;;;3.20;;
14994;SDS011;7593;49.006;8.372;2023-02-01T09:30:43;9.73;;;3.40;;
14994;SDS011;7593;49.006;8.372;2023-02-01T09:33:24;4.93;;;2.93;;
14994;SDS011;7593;49.006;8.372;2023-02-01T09:35:56;8.17;;;3.60;;
14994;SDS011;7593;49.006;8.372;2023-02-01T09:38:23;6.00;;;3.00;;
14994;SDS011;7593;49.006;8.372;2023-02-01T09:40:54;7.63;;;3.33;;
14994;SDS011;7593;49.006;8.372;2023-02-01T09:43:26;5.63;;;3.13;;
14994;SDS011;7593;49.006;8.372;2023-02-01T09:46:06;5.30;;;3.20;;
14994;SDS011;7593;49.006;8.372;2023-02-01T09:48:45;8.70;;;3.47;;
14994;SDS011;7593;49.006;8.372;2023-02-01T09:51:16;7.73;;;3.60;;
14994;SDS011;7593;49.006;8.372;2023-02-01T09:53:46;6.13;;;3.10;;
14994;SDS011;7593;49.006;8.372;2023-02-01T09:56:26;8.40;;;3.37;;
14994;SDS011;7593;49.006;8.372;2023-02-01T09:59:01;6.73;;;3.33;;
14994;SDS011;7593;49.006;8.372;2023-02-01T10:01:34;11.73;;;3.43;;
14994;SDS011;7593;49.006;8.372;2023-02-01T10:04:03;9.97;;;3.30;;
14994;SDS011;7593;49.006;8.372;2023-02-01T10:06:35;6.15;;;3.33;;
14994;SDS011;7593;49.006;8.372;2023-02-01T10:09:13;6.35;;;2.90;;
14994;SDS011;7593;49.006;8.372;2023-02-01T10:11:51;6.03;;;3.00;;
14994;SDS011;7593;49.006;8.372;2023-02-01T10:14:42;5.80;;;2.40;;
14994;SDS011;7593;49.006;8.372;2023-02-01T10:17:20;5.07;;;2.63;;
14994;SDS011;7593;49.006;8.372;2023-02-01T10:19:58;7.60;;;3.43;;
14994;SDS011;7593;49.006;8.372;2023-02-01T10:22:39;9.63;;;6.37;;
14994;SDS011;7593;49.006;8.372;2023-02-01T10:25:08;8.03;;;3.73;;
14994;SDS011;7593;49.006;8.372;2023-02-01T10:27:40;7.70;;;3.95;;
14994;SDS011;7593;49.006;8.372;2023-02-01T10:30:13;12.10;;;4.25;;
14994;SDS011;7593;49.006;8.372;2023-02-01T10:32:44;8.38;;;3.85;;
14994;SDS011;7593;49.006;8.372;2023-02-01T10:35:13;6.70;;;2.87;;
14994;SDS011;7593;49.006;8.372;2023-02-01T10:37:44;5.80;;;3.22;;
14994;SDS011;7593;49.006;8.372;2023-02-01T10:40:15;8.40;;;3.60;;
14994;SDS011;7593;49.006;8.372;2023-02-01T10:42:44;6.55;;;3.00;;
14994;SDS011;7593;49.006;8.372;2023-02-01T10:45:13;7.55;;;3.20;;
14994;SDS011;7593;49.006;8.372;2023-02-01T10:47:41;8.80;;;2.85;;
14994;SDS011;7593;49.006;8.372;2023-02-01T10:50:12;8.88;;;3.45;;
14994;SDS011;7593;49.006;8.372;2023-02-01T10:52:44;10.38;;;3.72;;
14994;SDS011;7593;49.006;8.372;2023-02-01T10:55:26;7.00;;;2.78;;
14994;SDS011;7593;49.006;8.372;2023-02-01T10:58:05;8.52;;;4.35;;
14994;SDS011;7593;49.006;8.372;2023-02-01T11:00:34;9.57;;;3.15;;
14994;SDS011;7593;49.006;8.372;2023-02-01T11:03:30;7.43;;;3.65;;
14994;SDS011;7593;49.006;8.372;2023-02-01T11:06:00;4.97;;;2.70;;
14994;SDS011;7593;49.006;8.372;2023-02-01T11:08:30;10.57;;;3.40;;
14994;SDS011;7593;49.006;8.372;2023-02-01T11:10:57;7.55;;;3.35;;
14994;SDS011;7593;49.006;8.372;2023-02-01T11:13:29;6.55;;;3.10;;
14994;SDS011;7593;49.006;8.372;2023-02-01T11:16:01;7.22;;;3.35;;
14994;SDS011;7593;49.006;8.372;2023-02-01T11:18:30;8.70;;;3.35;;
14994;SDS011;7593;49.006;8.372;2023-02-01T11:21:01;7.05;;;3.15;;
14994;SDS011;7593;49.006;8.372;2023-02-01T11:23:31;8.77;;;3.40;;
14994;SDS011;7593;49.006;8.372;2023-02-01T11:26:01;6.25;;;3.25;;
14994;SDS011;7593;49.006;8.372;2023-02-01T11:28:37;8.27;;;3.20;;
14994;SDS011;7593;49.006;8.372;2023-02-01T11:31:07;6.10;;;2.78;;
14994;SDS011;7593;49.006;8.372;2023-02-01T11:33:38;7.03;;;2.42;;
14994;SDS011;7593;49.006;8.372;2023-02-01T11:36:13;5.10;;;2.90;;
14994;SDS011;7593;49.006;8.372;2023-02-01T11:38:45;6.35;;;3.17;;
14994;SDS011;7593;49.006;8.372;2023-02-01T11:41:20;5.40;;;3.00;;
14994;SDS011;7593;49.006;8.372;2023-02-01T11:43:53;6.25;;;2.75;;
14994;SDS011;7593;49.006;8.372;2023-02-01T11:46:23;10.57;;;3.13;;
14994;SDS011;7593;49.006;8.372;2023-02-01T11:48:54;9.98;;;3.95;;
14994;SDS011;7593;49.006;8.372;2023-02-01T11:51:35;9.43;;;3.88;;
14994;SDS011;7593;49.006;8.372;2023-02-01T11:54:19;12.00;;;3.42;;
14994;SDS011;7593;49.006;8.372;2023-02-01T11:57:04;6.82;;;2.78;;
14994;SDS011;7593;49.006;8.372;2023-02-01T11:59:49;5.47;;;3.15;;
14994;SDS011;7593;49.006;8.372;2023-02-01T12:02:49;4.72;;;2.90;;
14994;SDS011;7593;49.006;8.372;2023-02-01T12:05:37;7.03;;;2.90;;
14994;SDS011;7593;49.006;8.372;2023-02-01T12:08:21;5.78;;;3.40;;
14994;SDS011;7593;49.006;8.372;2023-02-01T12:11:24;5.97;;;3.08;;
14994;SDS011;7593;49.006;8.372;2023-02-01T12:14:06;5.47;;;3.03;;
14994;SDS011;7593;49.006;8.372;2023-02-01T12:16:47;10.15;;;3.35;;
14994;SDS011;7593;49.006;8.372;2023-02-01T12:19:31;6.85;;;3.38;;
14994;SDS011;7593;49.006;8.372;2023-02-01T12:22:13;10.73;;;3.35;;
14994;SDS011;7593;49.006;8.372;2023-02-01T12:24:55;12.13;;;3.35;;
14994;SDS011;7593;49.006;8.372;2023-02-01T12:30:51;7.93;;;3.20;;
14994;SDS011;7593;49.006;8.372;2023-02-01T12:33:37;9.07;;;3.45;;
14994;SDS011;7593;49.006;8.372;2023-02-01T12:36:16;8.73;;;2.95;;
14994;SDS011;7593;49.006;8.372;2023-02-01T12:38:56;8.43;;;3.08;;
14994;SDS011;7593;49.006;8.372;2023-02-01T12:41:33;6.63;;;3.60;;
14994;SDS011;7593;49.006;8.372;2023-02-01T12:44:10;9.32;;;3.10;;
14994;SDS011;7593;49.006;8.372;2023-02-01T12:46:44;9.02;;;3.20;;
14994;SDS011;7593;49.006;8.372;2023-02-01T12:49:15;11.18;;;3.38;;
14994;SDS011;7593;49.006;8.372;2023-02-01T12:51:46;8.10;;;3.17;;
14994;SDS011;7593;49.006;8.372;2023-02-01T12:54:15;10.75;;;4.50;;
14994;SDS011;7593;49.006;8.372;2023-02-01T12:56:47;8.38;;;2.88;;
14994;SDS011;7593;49.006;8.372;2023-02-01T12:59:22;10.07;;;3.70;;
14994;SDS011;7593;49.006;8.372;2023-02-01T13:01:54;7.68;;;3.22;;
14994;SDS011;7593;49.006;8.372;2023-02-01T13:04:26;7.53;;;3.63;;
14994;SDS011;7593;49.006;8.372;2023-02-01T13:07:00;10.80;;;3.90;;
14994;SDS011;7593;49.006;8.372;2023-02-01T13:09:34;10.32;;;3.42;;
14994;SDS011;7593;49.006;8.372;2023-02-01T13:12:09;9.65;;;3.90;;
14994;SDS011;7593;49.006;8.372;2023-02-01T13:14:42;10.70;;;3.78;;
14994;SDS011;7593;49.006;8.372;2023-02-01T13:17:14;11.73;;;3.70;;
14994;SDS011;7593;49.006;8.372;2023-02-01T13:19:46;9.13;;;3.92;;
14994;SDS011;7593;49.006;8.372;2023-02-01T13:22:17;9.43;;;3.25;;
14994;SDS011;7593;49.006;8.372;2023-02-01T13:24:50;11.55;;;3.38;;
14994;SDS011;7593;49.006;8.372;2023-02-01T13:27:20;11.38;;;3.13;;
14994;SDS011;7593;49.006;8.372;2023-02-01T13:29:52;11.70;;;3.47;;
14994;SDS011;7593;49.006;8.372;2023-02-01T13:32:30;9.15;;;3.83;;
14994;SDS011;7593;49.006;8.372;2023-02-01T13:35:37;9.75;;;3.03;;
14994;SDS011;7593;49.006;8.372;2023-02-01T13:38:27;12.50;;;3.63;;
14994;SDS011;7593;49.006;8.372;2023-02-01T13:41:21;10.98;;;2.95;;
14994;SDS011;7593;49.006;8.372;2023-02-01T13:43:53;11.32;;;3.38;;
14994;SDS011;7593;49.006;8.372;2023-02-01T13:46:25;10.98;;;3.60;;
14994;SDS011;7593;49.006;8.372;2023-02-01T13:48:54;11.18;;;3.70;;
14994;SDS011;7593;49.006;8.372;2023-02-01T13:51:35;24.80;;;9.45;;
14994;SDS011;7593;49.006;8.372;2023-02-01T13:54:03;11.70;;;3.47;;
14994;SDS011;7593;49.006;8.372;2023-02-01T13:56:39;12.70;;;4.70;;
14994;SDS011;7593;49.006;8.372;2023-02-01T14:08:25;10.48;;;3.15;;
14994;SDS011;7593;49.006;8.372;2023-02-01T14:11:04;9.15;;;3.30;;
14994;SDS011;7593;49.006;8.372;2023-02-01T14:13:31;12.70;;;3.90;;
14994;SDS011;7593;49.006;8.372;2023-02-01T14:18:49;10.13;;;3.00;;
14994;SDS011;7593;49.006;8.372;2023-02-01T14:21:27;12.13;;;3.30;;
14994;SDS011;7593;49.006;8.372;2023-02-01T14:23:58;14.35;;;4.13;;
14994;SDS011;7593;49.006;8.372;2023-02-01T14:26:40;12.65;;;3.15;;
14994;SDS011;7593;49.006;8.372;2023-02-01T14:29:21;9.95;;;3.22;;
14994;SDS011;7593;49.006;8.372;2023-02-01T14:31:53;14.82;;;3.75;;
14994;SDS011;7593;49.006;8.372;2023-02-01T14:34:31;12.40;;;3.90;;
14994;SDS011;7593;49.006;8.372;2023-02-01T14:37:08;14.32;;;3.80;;
14994;SDS011;7593;49.006;8.372;2023-02-01T14:39:40;10.98;;;3.30;;
14994;SDS011;7593;49.006;8.372;2023-02-01T14:42:21;11.73;;;3.40;;
14994;SDS011;7593;49.006;8.372;2023-02-01T14:44:52;11.68;;;3.15;;
14994;SDS011;7593;49.006;8.372;2023-02-01T14:47:29;12.65;;;3.97;;
14994;SDS011;7593;49.006;8.372;2023-02-01T14:50:02;10.98;;;4.07;;
14994;SDS011;7593;49.006;8.372;2023-02-01T14:52:50;9.80;;;3.75;;
14994;SDS011;7593;49.006;8.372;2023-02-01T14:55:29;19.35;;;8.65;;
14994;SDS011;7593;49.006;8.372;2023-02-01T14:58:02;11.13;;;3.88;;
14994;SDS011;7593;49.006;8.372;2023-02-01T15:00:41;8.88;;;3.75;;
14994;SDS011;7593;49.006;8.372;2023-02-01T15:03:17;15.10;;;4.88;;
14994;SDS011;7593;49.006;8.372;2023-02-01T15:05:55;13.55;;;5.95;;
14994;SDS011;7593;49.006;8.372;2023-02-01T15:08:24;8.52;;;3.75;;
14994;SDS011;7593;49.006;8.372;2023-02-01T15:10:55;12.85;;;4.25;;
14994;SDS011;7593;49.006;8.372;2023-02-01T15:13:25;9.32;;;3.83;;
14994;SDS011;7593;49.006;8.372;2023-02-01T15:16:04;11.25;;;3.53;;
14994;SDS011;7593;49.006;8.372;2023-02-01T15:18:35;10.23;;;3.28;;
14994;SDS011;7593;49.006;8.372;2023-02-01T15:21:03;12.57;;;3.90;;
14994;SDS011;7593;49.006;8.372;2023-02-01T15:23:31;12.88;;;4.13;;
14994;SDS011;7593;49.006;8.372;2023-02-01T15:25:59;11.32;;;3.60;;
14994;SDS011;7593;49.006;8.372;2023-02-01T15:28:26;13.82;;;4.30;;
14994;SDS011;7593;49.006;8.372;2023-02-01T15:30:54;9.30;;;3.20;;
14994;SDS011;7593;49.006;8.372;2023-02-01T15:33:22;12.05;;;3.95;;
14994;SDS011;7593;49.006;8.372;2023-02-01T15:35:50;10.70;;;3.85;;
14994;SDS011;7593;49.006;8.372;2023-02-01T15:38:19;10.35;;;4.07;;
14994;SDS011;7593;49.006;8.372;2023-02-01T15:40:53;10.27;;;5.13;;
14994;SDS011;7593;49.006;8.372;2023-02-01T15:43:23;14.13;;;5.10;;
14994;SDS011;7593;49.006;8.372;2023-02-01T15:45:51;12.70;;;4.20;;